Time;durP1;ratioP1;P1;durP2;ratioP2;P2;SDS_P1;SDS_P2;PMS_P1;PMS_P2;Temp;Humidity;BMP_temperature;BMP_pressure;BME280_temperature;BME280_humidity;BME280_pressure;Samples;Min_cycle;Max_cycle;Signal;HPM_P1;HPM_P2
2021/04/16 00:02:16;;;;;;;0.20;0.20;;;;;;;22.88;28.80;94459.38;5016675;28;20035;-66
2021/04/16 00:04:42;;;;;;;0.20;0.20;;;;;;;22.88;28.69;94458.59;5001670;28;20042;-67
2021/04/16 00:07:07;;;;;;;0.20;0.20;;;;;;;22.90;28.36;94464.41;5014835;28;20033;-67
2021/04/16 00:09:35;;;;;;;0.30;0.30;;;;;;;22.88;28.85;94462.03;5030570;28;20044;-67
2021/04/16 00:12:04;;;;;;;0.35;0.22;;;;;;;22.92;28.85;94459.63;5015398;28;20032;-67
2021/04/16 00:14:30;;;;;;;0.30;0.30;;;;;;;22.90;28.90;94456.47;5004411;28;20025;-67
2021/04/16 00:16:56;;;;;;;0.22;0.22;;;;;;;22.89;28.70;94455.69;5018118;28;20044;-67
2021/04/16 00:19:21;;;;;;;0.20;0.20;;;;;;;22.90;28.68;94461.75;5013979;28;20028;-67
2021/04/16 00:21:47;;;;;;;0.20;0.20;;;;;;;22.88;28.85;94448.78;5033917;28;20037;-67
2021/04/16 00:24:12;;;;;;;0.28;0.28;;;;;;;22.89;28.65;94453.03;5011393;28;20031;-67
2021/04/16 00:26:39;;;;;;;0.20;0.20;;;;;;;22.91;28.98;94447.44;5017717;28;20040;-67
2021/04/16 00:29:07;;;;;;;0.20;0.20;;;;;;;22.86;28.70;94437.66;5009847;28;20045;-67
2021/04/16 00:31:33;;;;;;;0.25;0.25;;;;;;;22.89;28.77;94445.06;4988442;28;20037;-67
2021/04/16 00:34:00;;;;;;;0.20;0.20;;;;;;;22.89;28.88;94439.75;5029932;28;20035;-67
2021/04/16 00:36:25;;;;;;;0.20;0.20;;;;;;;22.88;28.74;94430.22;5015360;28;20024;-67
2021/04/16 00:38:51;;;;;;;0.20;0.20;;;;;;;22.89;28.96;94431.81;5015705;28;20029;-67
2021/04/16 00:41:20;;;;;;;0.20;0.20;;;;;;;22.92;28.91;94425.94;5034155;28;20025;-67
2021/04/16 00:43:45;;;;;;;0.20;0.20;;;;;;;22.89;28.60;94426.50;5000996;28;20029;-66
2021/04/16 00:46:11;;;;;;;0.20;0.20;;;;;;;22.89;28.78;94423.84;5032431;28;20111;-67
2021/04/16 00:48:52;;;;;;;0.20;0.20;;;;;;;22.90;28.78;94420.13;5037608;28;20044;-66
2021/04/16 00:51:26;;;;;;;0.20;0.20;;;;;;;22.93;28.96;94416.94;5015171;28;20040;-66
2021/04/16 00:53:52;;;;;;;0.10;0.10;;;;;;;22.89;28.78;94415.13;5032242;28;20104;-67
2021/04/16 00:56:17;;;;;;;0.20;0.20;;;;;;;22.88;28.78;94424.91;5003924;28;20082;-67
2021/04/16 00:58:43;;;;;;;0.20;0.20;;;;;;;22.89;28.68;94410.59;5037244;28;20028;-67
2021/04/16 01:01:09;;;;;;;0.20;0.20;;;;;;;22.89;28.75;94412.47;5048080;28;20074;-66
2021/04/16 01:03:34;;;;;;;0.20;0.20;;;;;;;22.88;28.91;94409.00;5002878;28;20031;-66
2021/04/16 01:06:05;;;;;;;0.20;0.20;;;;;;;22.91;28.70;94405.81;5001994;28;20108;-67
2021/04/16 01:08:31;;;;;;;0.20;0.20;;;;;;;22.88;28.71;94406.34;5002672;28;20035;-67
2021/04/16 01:10:57;;;;;;;0.20;0.20;;;;;;;22.88;28.72;94409.00;4987429;28;20021;-67
2021/04/16 01:13:23;;;;;;;0.20;0.20;;;;;;;22.89;28.79;94399.22;5036486;28;20028;-67
2021/04/16 01:15:58;;;;;;;0.30;0.30;;;;;;;22.88;28.68;94401.03;5019999;28;20132;-66
2021/04/16 01:18:27;;;;;;;0.22;0.22;;;;;;;22.92;28.65;94399.41;5032588;28;20032;-67
2021/04/16 01:20:56;;;;;;;0.20;0.20;;;;;;;22.89;28.66;94397.34;5018363;28;20029;-67
2021/04/16 01:23:49;;;;;;;0.20;0.20;;;;;;;22.93;28.51;94398.38;5017950;28;20053;-66
2021/04/16 01:26:23;;;;;;;0.20;0.20;;;;;;;22.91;28.60;94397.06;5021690;28;20034;-67
2021/04/16 01:28:49;;;;;;;0.20;0.20;;;;;;;22.86;28.85;94400.53;5019889;28;20116;-67
2021/04/16 01:31:16;;;;;;;0.30;0.30;;;;;;;22.89;28.79;94397.34;5019139;28;20025;-67
2021/04/16 01:33:45;;;;;;;0.20;0.20;;;;;;;22.88;28.77;94400.25;5021054;28;20021;-66
2021/04/16 01:36:14;;;;;;;0.30;0.30;;;;;;;22.88;28.80;94392.31;5004028;28;20112;-67
2021/04/16 01:38:40;;;;;;;0.20;0.20;;;;;;;22.88;28.81;94387.00;5007324;28;20079;-66
2021/04/16 01:41:06;;;;;;;0.20;0.20;;;;;;;22.88;28.75;94395.75;5004905;28;20035;-67
2021/04/16 01:43:37;;;;;;;0.20;0.20;;;;;;;22.90;28.62;94393.59;5019643;28;20021;-66
2021/04/16 01:46:07;;;;;;;0.20;0.20;;;;;;;22.90;28.77;94388.31;5003545;28;20035;-67
2021/04/16 01:48:47;;;;;;;0.30;0.30;;;;;;;22.92;28.62;94394.13;5004632;28;20021;-67
2021/04/16 01:51:18;;;;;;;0.20;0.20;;;;;;;22.91;28.90;94386.47;5020242;28;20029;-67
2021/04/16 01:53:44;;;;;;;0.20;0.20;;;;;;;22.87;28.78;94383.56;5004529;28;20026;-67
2021/04/16 01:56:09;;;;;;;0.20;0.20;;;;;;;22.88;28.84;94377.19;5017439;28;20040;-67
2021/04/16 01:58:36;;;;;;;0.30;0.30;;;;;;;22.89;28.97;94378.00;5034977;28;20030;-67
2021/04/16 02:01:03;;;;;;;0.20;0.20;;;;;;;22.85;28.88;94375.09;5036418;28;20033;-67
2021/04/16 02:03:30;;;;;;;0.20;0.20;;;;;;;22.90;28.65;94380.34;5003738;28;20025;-67
2021/04/16 02:05:56;;;;;;;0.20;0.20;;;;;;;22.87;28.66;94378.25;5003948;28;20033;-67
2021/04/16 02:08:21;;;;;;;0.30;0.30;;;;;;;22.88;28.89;94379.03;5036148;28;20056;-67
2021/04/16 02:10:48;;;;;;;0.20;0.20;;;;;;;22.86;28.77;94379.31;4989907;28;20033;-66
2021/04/16 02:13:14;;;;;;;0.38;0.28;;;;;;;22.86;28.63;94370.59;5001176;28;20087;-67
2021/04/16 02:15:39;;;;;;;0.20;0.20;;;;;;;22.89;28.75;94375.34;4997742;28;20025;-67
2021/04/16 02:18:05;;;;;;;0.10;0.10;;;;;;;22.88;28.88;94368.44;5017140;28;20041;-67
2021/04/16 02:20:34;;;;;;;0.20;0.20;;;;;;;22.91;28.71;94376.66;5032760;28;20079;-67
2021/04/16 02:23:04;;;;;;;0.20;0.20;;;;;;;22.92;28.92;94372.13;5018100;28;20029;-67
2021/04/16 02:25:30;;;;;;;0.20;0.20;;;;;;;22.87;28.76;94364.22;5020333;28;20033;-67
2021/04/16 02:27:56;;;;;;;0.20;0.20;;;;;;;22.88;28.87;94369.22;5044239;28;20075;-67
2021/04/16 02:30:30;;;;;;;0.20;0.20;;;;;;;22.92;28.70;94367.59;5044279;28;20036;-67
2021/04/16 02:32:55;;;;;;;0.20;0.20;;;;;;;22.88;28.56;94365.78;5032768;28;20052;-67
2021/04/16 02:35:21;;;;;;;0.20;0.20;;;;;;;22.88;28.47;94365.78;5000461;28;20026;-67
2021/04/16 02:37:46;;;;;;;0.10;0.10;;;;;;;22.88;28.86;94366.56;5024014;28;20048;-67
2021/04/16 02:40:15;;;;;;;0.20;0.20;;;;;;;22.89;28.79;94362.88;5006531;28;20033;-67
2021/04/16 02:42:41;;;;;;;0.20;0.20;;;;;;;22.89;28.44;94368.16;5000680;28;20079;-67
2021/04/16 02:45:07;;;;;;;0.30;0.20;;;;;;;22.88;28.87;94363.13;4997503;28;20033;-67
2021/04/16 02:47:33;;;;;;;0.20;0.20;;;;;;;22.89;28.67;94367.38;5003172;28;20025;-67
2021/04/16 02:50:00;;;;;;;0.20;0.20;;;;;;;22.89;28.68;94362.09;5035938;28;20175;-66
2021/04/16 02:52:25;;;;;;;0.20;0.20;;;;;;;22.87;28.77;94365.00;5019096;28;20036;-67
2021/04/16 02:54:52;;;;;;;0.20;0.20;;;;;;;22.90;28.69;94366.31;5015950;28;20025;-67
2021/04/16 02:57:21;;;;;;;0.20;0.20;;;;;;;22.87;28.66;94364.22;5016158;28;20030;-67
2021/04/16 02:59:46;;;;;;;0.10;0.10;;;;;;;22.88;28.61;94366.56;5028918;28;20029;-67
2021/04/16 03:02:12;;;;;;;0.20;0.20;;;;;;;22.88;28.76;94363.91;5053762;28;20056;-66
2021/04/16 03:04:37;;;;;;;0.25;0.25;;;;;;;22.87;28.58;94353.63;5034636;28;20053;-67
2021/04/16 03:07:03;;;;;;;0.22;0.22;;;;;;;22.89;28.64;94359.44;5034988;28;20058;-67
2021/04/16 03:09:29;;;;;;;0.20;0.20;;;;;;;22.89;28.70;94360.22;5031339;28;20029;-66
2021/04/16 03:11:55;;;;;;;0.20;0.20;;;;;;;22.87;28.88;94354.41;5013353;28;20035;-67
2021/04/16 03:14:20;;;;;;;0.20;0.20;;;;;;;22.88;28.91;94355.19;5035030;28;20025;-67
2021/04/16 03:16:48;;;;;;;0.20;0.20;;;;;;;22.89;28.74;94359.44;5018743;28;20021;-67
2021/04/16 03:19:14;;;;;;;0.10;0.10;;;;;;;22.88;28.70;94353.31;4985718;28;20052;-66
2021/04/16 03:21:41;;;;;;;0.20;0.20;;;;;;;22.88;28.75;94353.31;5035226;28;20040;-67
2021/04/16 03:24:08;;;;;;;0.20;0.20;;;;;;;22.89;28.75;94354.91;5002839;28;20095;-67
2021/04/16 03:26:33;;;;;;;0.20;0.20;;;;;;;22.87;28.54;94343.00;4999503;28;20032;-67
2021/04/16 03:29:00;;;;;;;0.20;0.20;;;;;;;22.88;28.75;94349.88;5015736;28;20025;-67
2021/04/16 03:31:26;;;;;;;0.20;0.20;;;;;;;22.88;28.70;94352.53;5007308;28;20031;-67
2021/04/16 03:33:52;;;;;;;0.20;0.20;;;;;;;22.86;28.63;94347.50;5002449;28;20019;-67
2021/04/16 03:36:17;;;;;;;0.10;0.10;;;;;;;22.88;28.79;94342.72;5015236;28;20025;-67
2021/04/16 03:38:43;;;;;;;0.20;0.20;;;;;;;22.88;28.61;94347.22;5050988;28;20087;-67
2021/04/16 03:41:08;;;;;;;0.20;0.20;;;;;;;22.86;28.52;94347.50;4996988;28;20075;-67
2021/04/16 03:43:34;;;;;;;0.20;0.20;;;;;;;22.88;28.66;94350.66;5035534;28;20024;-67
2021/04/16 03:45:59;;;;;;;0.20;0.20;;;;;;;22.88;28.68;94350.66;5036049;28;20029;-67
2021/04/16 03:48:27;;;;;;;0.20;0.20;;;;;;;22.91;28.61;94347.47;5007371;28;20033;-67
2021/04/16 03:50:53;;;;;;;0.20;0.20;;;;;;;22.88;28.74;94345.38;4984498;28;20036;-68
2021/04/16 03:53:20;;;;;;;0.20;0.20;;;;;;;22.90;28.77;94353.03;5025624;28;20021;-67
2021/04/16 03:55:46;;;;;;;0.20;0.20;;;;;;;22.88;28.50;94355.97;5018780;28;20032;-67
2021/04/16 03:58:13;;;;;;;0.20;0.20;;;;;;;22.87;28.69;94354.41;5034101;28;20086;-67
2021/04/16 04:00:40;;;;;;;0.20;0.20;;;;;;;22.88;28.94;94355.97;5016037;28;20028;-67
2021/04/16 04:03:09;;;;;;;0.20;0.20;;;;;;;22.90;28.85;94353.84;5033897;28;20028;-67
2021/04/16 04:05:36;;;;;;;0.20;0.20;;;;;;;22.90;28.75;94355.69;5002451;28;20025;-67
2021/04/16 04:08:02;;;;;;;0.20;0.20;;;;;;;22.88;28.84;94349.88;5038136;28;20339;-67
2021/04/16 04:10:34;;;;;;;0.17;0.17;;;;;;;22.87;28.84;94354.41;5023901;28;20131;-67
2021/04/16 04:12:59;;;;;;;0.20;0.20;;;;;;;22.87;28.52;94359.72;5039107;28;20032;-67
2021/04/16 04:15:25;;;;;;;0.20;0.20;;;;;;;22.86;28.79;94360.75;5018535;28;20124;-67
2021/04/16 04:17:51;;;;;;;0.20;0.20;;;;;;;22.88;28.87;94360.50;5014843;28;20032;-66
2021/04/16 04:20:18;;;;;;;0.20;0.20;;;;;;;22.89;28.62;94357.56;5027445;28;20025;-66
2021/04/16 04:22:44;;;;;;;0.20;0.20;;;;;;;22.88;28.82;94366.56;4999551;28;20021;-67
2021/04/16 04:25:10;;;;;;;0.20;0.20;;;;;;;22.89;28.77;94359.44;5006138;28;20033;-67
2021/04/16 04:27:37;;;;;;;0.20;0.20;;;;;;;22.89;28.63;94362.09;5026849;28;20025;-66
2021/04/16 04:30:06;;;;;;;0.20;0.20;;;;;;;22.89;28.60;94368.16;5032077;28;20028;-66
2021/04/16 04:32:32;;;;;;;0.13;0.13;;;;;;;22.87;28.44;94362.34;5003048;28;20124;-67
2021/04/16 04:34:57;;;;;;;0.20;0.20;;;;;;;22.88;28.74;94366.56;5055446;28;20030;-67
2021/04/16 04:37:23;;;;;;;0.20;0.20;;;;;;;22.87;28.66;94370.31;5030824;28;20036;-67
2021/04/16 04:39:48;;;;;;;0.20;0.20;;;;;;;22.87;28.61;94365.00;5008808;28;20020;-67
2021/04/16 04:42:14;;;;;;;0.10;0.10;;;;;;;22.88;28.63;94371.88;5038893;28;20032;-67
2021/04/16 04:44:40;;;;;;;0.20;0.20;;;;;;;22.87;28.84;94375.63;5011933;28;20028;-67
2021/04/16 04:47:06;;;;;;;0.17;0.17;;;;;;;22.89;28.83;94378.00;4998257;28;20021;-66
2021/04/16 04:49:33;;;;;;;0.28;0.28;;;;;;;22.88;28.78;94371.88;5009557;28;20033;-67
2021/04/16 04:52:13;;;;;;;0.30;0.30;;;;;;;22.92;28.78;94377.44;5037083;28;20044;-67
2021/04/16 04:54:49;;;;;;;0.13;0.13;;;;;;;22.92;28.81;94372.13;5014768;28;20067;-67
2021/04/16 04:57:15;;;;;;;0.20;0.20;;;;;;;22.87;28.80;94375.63;5014999;28;20033;-67
2021/04/16 04:59:41;;;;;;;0.25;0.25;;;;;;;22.88;28.60;94373.75;5011284;28;20041;-67
2021/04/16 05:02:07;;;;;;;0.17;0.17;;;;;;;22.87;28.62;94377.47;5008554;28;20025;-67
2021/04/16 05:04:32;;;;;;;0.20;0.20;;;;;;;22.88;28.69;94371.09;5010099;28;20044;-66
2021/04/16 05:06:58;;;;;;;0.20;0.20;;;;;;;22.86;28.56;94376.66;5013319;28;20036;-66
2021/04/16 05:09:23;;;;;;;0.25;0.25;;;;;;;22.88;28.54;94379.84;5044562;28;20033;-66
2021/04/16 05:11:49;;;;;;;0.17;0.17;;;;;;;22.87;28.85;94378.25;5038409;28;20099;-67
2021/04/16 05:14:20;;;;;;;0.20;0.20;;;;;;;22.92;28.46;94382.72;5025508;28;20048;-67
2021/04/16 05:16:46;;;;;;;0.20;0.20;;;;;;;22.89;28.66;94381.44;5050278;28;20033;-67
2021/04/16 05:19:12;;;;;;;0.20;0.20;;;;;;;22.86;28.55;94381.97;5051655;28;20040;-67
2021/04/16 05:21:39;;;;;;;0.20;0.20;;;;;;;22.88;28.75;94381.69;5032602;28;20044;-66
2021/04/16 05:24:08;;;;;;;0.20;0.20;;;;;;;22.92;28.58;94385.38;5032359;28;20106;-67
2021/04/16 05:26:34;;;;;;;0.20;0.20;;;;;;;22.87;28.75;94388.88;5024377;28;20032;-67
2021/04/16 05:29:01;;;;;;;0.13;0.13;;;;;;;22.88;28.88;94382.47;5004223;28;20021;-66
2021/04/16 05:31:29;;;;;;;0.20;0.20;;;;;;;22.87;28.76;94380.91;5001803;28;20031;-66
2021/04/16 05:33:54;;;;;;;0.20;0.20;;;;;;;22.87;28.60;94380.13;5047230;28;20033;-67
2021/04/16 05:36:20;;;;;;;0.22;0.22;;;;;;;22.89;28.78;94388.59;5024520;28;20023;-67
2021/04/16 05:38:45;;;;;;;0.13;0.13;;;;;;;22.88;28.79;94384.34;5012450;28;20060;-66
2021/04/16 05:41:11;;;;;;;0.25;0.25;;;;;;;22.85;28.70;94383.06;5050562;28;20064;-67
2021/04/16 05:43:36;;;;;;;0.28;0.20;;;;;;;22.88;28.58;94384.34;5040615;28;20025;-66
2021/04/16 05:46:02;;;;;;;0.20;0.20;;;;;;;22.89;28.82;94381.44;5024337;28;20044;-66
2021/04/16 05:48:30;;;;;;;0.25;0.25;;;;;;;22.88;28.60;94387.00;5026315;28;20036;-66
2021/04/16 05:50:56;;;;;;;0.20;0.20;;;;;;;22.88;28.64;94385.13;5000094;28;20025;-67
2021/04/16 05:53:22;;;;;;;0.20;0.20;;;;;;;22.88;28.61;94389.66;5011097;28;20028;-67
2021/04/16 05:55:48;;;;;;;0.20;0.20;;;;;;;22.87;28.59;94394.19;5036256;28;20029;-66
2021/04/16 05:58:13;;;;;;;0.20;0.20;;;;;;;22.86;28.79;94392.56;5015745;28;20048;-67
2021/04/16 06:00:41;;;;;;;0.20;0.20;;;;;;;22.90;28.51;94395.47;5035294;28;20050;-67
2021/04/16 06:03:08;;;;;;;0.20;0.20;;;;;;;22.88;28.44;94398.38;5015845;28;20030;-67
2021/04/16 06:05:34;;;;;;;0.10;0.10;;;;;;;22.88;28.50;94400.25;5001148;28;20360;-67
2021/04/16 06:08:02;;;;;;;0.20;0.20;;;;;;;22.88;28.77;94401.03;5012136;28;20018;-67
2021/04/16 06:10:27;;;;;;;0.17;0.17;;;;;;;22.86;28.83;94394.44;5022300;28;20033;-66
2021/04/16 06:12:54;;;;;;;0.20;0.20;;;;;;;22.90;28.94;94398.13;5004391;28;20025;-67
2021/04/16 06:15:24;;;;;;;0.17;0.17;;;;;;;22.88;28.87;94401.03;5037073;28;20119;-66
2021/04/16 06:17:51;;;;;;;0.20;0.20;;;;;;;22.88;28.59;94397.59;5018209;28;20035;-66
2021/04/16 06:20:18;;;;;;;0.20;0.20;;;;;;;22.88;28.61;94403.69;5005098;28;20128;-67
2021/04/16 06:22:46;;;;;;;0.20;0.20;;;;;;;22.87;28.67;94402.13;5018821;28;20082;-66
2021/04/16 06:25:12;;;;;;;0.20;0.20;;;;;;;22.87;28.71;94407.44;5002327;28;20021;-67
2021/04/16 06:27:38;;;;;;;0.20;0.20;;;;;;;22.87;28.47;94402.13;5002376;28;20033;-67
2021/04/16 06:30:07;;;;;;;0.20;0.20;;;;;;;22.92;28.75;94406.59;5013030;28;20060;-67
2021/04/16 06:32:33;;;;;;;0.30;0.30;;;;;;;22.88;28.63;94401.03;5016879;28;20032;-66
2021/04/16 06:34:58;;;;;;;0.20;0.20;;;;;;;22.88;28.69;94397.59;5000009;28;20021;-67
2021/04/16 06:37:24;;;;;;;0.10;0.10;;;;;;;22.87;28.67;94402.13;5014910;28;20040;-66
2021/04/16 06:39:49;;;;;;;0.10;0.10;;;;;;;22.86;28.53;94405.03;5031498;28;20024;-67
2021/04/16 06:42:29;;;;;;;0.20;0.20;;;;;;;22.92;28.49;94403.94;5018805;28;20120;-70
2021/04/16 06:45:00;;;;;;;0.30;0.30;;;;;;;22.90;28.44;94400.78;5017140;28;20048;-71
2021/04/16 06:47:48;;;;;;;0.40;0.40;;;;;;;22.87;28.37;94407.44;5010038;28;20021;-71
2021/04/16 06:50:14;;;;;;;0.50;0.30;;;;;;;22.84;28.30;94400.00;5022553;28;20142;-66
2021/04/16 06:52:45;;;;;;;0.30;0.30;;;;;;;22.90;28.36;94404.22;5021065;28;20147;-67
2021/04/16 06:55:19;;;;;;;0.40;0.38;;;;;;;22.86;28.12;94400.53;5009669;28;20017;-66
2021/04/16 06:57:50;;;;;;;0.50;0.30;;;;;;;22.89;28.38;94393.91;5031163;28;20033;-66
2021/04/16 07:00:18;;;;;;;;;;;;;;;22.90;28.52;94396.25;5033076;28;20026;-67
2021/04/16 07:02:53;;;;;;;0.20;0.20;;;;;;;22.92;28.40;94394.13;5050354;28;19958;-67
2021/04/16 07:05:31;;;;;;;0.32;0.32;;;;;;;22.91;28.52;94397.06;5020824;28;20025;-67
2021/04/16 07:07:57;;;;;;;0.30;0.30;;;;;;;22.86;28.31;94400.53;5000312;28;20029;-67
2021/04/16 07:10:39;;;;;;;0.20;0.20;;;;;;;22.87;28.60;94396.81;5022394;28;20029;-67
2021/04/16 07:13:05;;;;;;;0.30;0.30;;;;;;;22.84;28.53;94402.66;5037139;28;20123;-67
2021/04/16 07:15:49;;;;;;;0.22;0.22;;;;;;;22.83;28.43;94404.53;5003944;28;20028;-67
2021/04/16 07:18:18;;;;;;;1.10;0.22;;;;;;;22.83;28.53;94401.09;5016577;28;20034;-66
2021/04/16 07:20:45;;;;;;;0.50;0.30;;;;;;;22.85;28.39;94406.91;5011173;28;20029;-67
2021/04/16 07:23:10;;;;;;;0.30;0.30;;;;;;;22.81;28.47;94405.88;5000609;28;20033;-66
2021/04/16 07:25:41;;;;;;;2.15;0.22;;;;;;;22.83;28.33;94411.69;5023169;28;20087;-66
2021/04/16 07:28:08;;;;;;;;;;;;;;;22.88;28.71;94416.16;5021084;28;20055;-66
2021/04/16 07:30:49;;;;;;;0.22;0.22;;;;;;;22.89;28.50;94413.25;5021552;28;19939;-67
2021/04/16 07:33:32;;;;;;;0.20;0.20;;;;;;;22.89;28.26;94409.81;5018073;28;20032;-66
2021/04/16 07:36:20;;;;;;;0.20;0.20;;;;;;;22.88;28.43;94405.56;5010773;28;20029;-67
2021/04/16 07:39:17;;;;;;;0.50;0.30;;;;;;;22.87;28.43;94409.28;5029844;28;20029;-66
2021/04/16 07:41:45;;;;;;;0.30;0.25;;;;;;;22.81;28.30;94403.22;5023039;28;20031;-67
2021/04/16 07:44:34;;;;;;;0.30;0.30;;;;;;;22.84;28.37;94405.31;4999392;28;20040;-66
2021/04/16 07:47:15;;;;;;;0.15;0.15;;;;;;;22.83;28.47;94409.84;5018137;28;20129;-67
2021/04/16 07:50:17;;;;;;;0.98;0.20;;;;;;;22.84;28.48;94422.00;5060079;28;20024;-66
2021/04/16 07:52:46;;;;;;;0.20;0.20;;;;;;;22.86;28.36;94418.31;5026822;28;20021;-67
2021/04/16 07:55:23;;;;;;;0.47;0.30;;;;;;;22.86;28.52;94407.69;5016640;28;20028;-67
2021/04/16 07:58:00;;;;;;;0.30;0.20;;;;;;;22.81;28.62;94413.84;5013329;28;20048;-67
2021/04/16 08:00:52;;;;;;;0.60;0.22;;;;;;;22.84;28.65;94414.06;5020528;28;20047;-66
2021/04/16 08:03:24;;;;;;;0.50;0.30;;;;;;;22.85;28.37;94417.53;5015015;28;20037;-67
2021/04/16 08:05:54;;;;;;;1.02;0.28;;;;;;;22.84;28.51;94419.34;5019779;28;20040;-67
2021/04/16 08:08:29;;;;;;;0.43;0.40;;;;;;;22.86;28.33;94427.03;5030042;28;20037;-67
2021/04/16 08:11:01;;;;;;;0.20;0.20;;;;;;;22.86;28.45;94419.09;5010535;28;20036;-67
2021/04/16 08:13:33;;;;;;;0.30;0.30;;;;;;;22.81;28.32;94414.63;5052898;28;20075;-67
2021/04/16 08:16:16;;;;;;;0.20;0.20;;;;;;;22.82;28.37;94410.09;5033218;28;20099;-67
2021/04/16 08:18:48;;;;;;;0.20;0.20;;;;;;;22.83;28.27;94419.66;5011709;28;20025;-66
2021/04/16 08:21:17;;;;;;;0.43;0.20;;;;;;;22.81;28.53;94422.56;5020297;28;20067;-66
2021/04/16 08:23:49;;;;;;;0.30;0.30;;;;;;;22.86;28.54;94423.59;5018308;28;20119;-67
2021/04/16 08:26:15;;;;;;;0.80;0.20;;;;;;;22.82;28.40;94420.72;5031295;28;20024;-67
2021/04/16 08:28:49;;;;;;;0.30;0.20;;;;;;;22.82;28.24;94420.72;5013989;28;20029;-66
2021/04/16 08:31:21;;;;;;;0.30;0.30;;;;;;;22.83;28.47;94423.09;5037104;28;20028;-67
2021/04/16 08:33:49;;;;;;;0.28;0.28;;;;;;;22.83;28.50;94423.09;4998775;28;20067;-67
2021/04/16 08:36:26;;;;;;;0.28;0.20;;;;;;;22.88;28.62;94421.47;5014572;28;20021;-67
2021/04/16 08:39:11;;;;;;;0.22;0.22;;;;;;;22.82;28.52;94410.88;5034414;28;20116;-67
2021/04/16 08:41:42;;;;;;;0.95;0.30;;;;;;;22.86;28.20;94420.97;5037603;28;20144;-66
2021/04/16 08:44:08;;;;;;;;;;;;;;;22.87;28.45;94417.25;5031814;28;20029;-66
2021/04/16 08:46:47;;;;;;;0.30;0.25;;;;;;;22.91;28.27;94419.06;5034372;28;19925;-66
2021/04/16 08:49:20;;;;;;;0.60;0.30;;;;;;;22.86;28.27;94419.09;5030689;28;20055;-66
2021/04/16 08:51:54;;;;;;;0.20;0.20;;;;;;;22.88;28.19;94418.81;5009904;28;20032;-67
2021/04/16 08:54:25;;;;;;;0.28;0.28;;;;;;;22.87;28.58;94417.25;5001054;28;20135;-67
2021/04/16 08:57:09;;;;;;;0.30;0.30;;;;;;;22.88;28.18;94424.13;5031517;28;20136;-66
2021/04/16 09:00:05;;;;;;;0.30;0.30;;;;;;;22.86;28.29;94416.44;5055766;28;20044;-67
2021/04/16 09:02:52;;;;;;;0.20;0.20;;;;;;;22.81;28.51;94411.19;5047017;28;20029;-67
2021/04/16 09:05:36;;;;;;;0.63;0.30;;;;;;;22.82;28.56;94416.19;5034039;28;20037;-67
2021/04/16 09:08:08;;;;;;;0.20;0.20;;;;;;;22.87;28.51;94412.72;5016186;28;20115;-67
2021/04/16 09:10:40;;;;;;;0.30;0.20;;;;;;;22.86;28.38;94419.09;5041473;28;20029;-67
2021/04/16 09:13:06;;;;;;;0.30;0.30;;;;;;;22.82;28.54;94420.72;5020784;28;20026;-66
2021/04/16 09:15:35;;;;;;;0.20;0.20;;;;;;;22.85;28.62;94420.16;5015918;28;20024;-66
2021/04/16 09:18:01;;;;;;;0.40;0.30;;;;;;;22.83;28.47;94417.00;5043834;28;20021;-66
2021/04/16 09:20:47;;;;;;;0.63;0.20;;;;;;;22.81;28.65;94408.53;5050731;28;20025;-67
2021/04/16 09:23:40;;;;;;;1.00;0.30;;;;;;;22.87;28.44;94409.28;5037740;28;20039;-67
2021/04/16 09:26:07;;;;;;;0.20;0.20;;;;;;;22.83;28.62;94404.53;4972516;28;20042;-66
2021/04/16 09:28:54;;;;;;;0.20;0.20;;;;;;;22.83;28.78;94401.88;4972929;28;20094;-67
2021/04/16 09:31:23;;;;;;;0.20;0.20;;;;;;;22.89;28.71;94407.16;4959934;28;20041;-67
2021/04/16 09:33:49;;;;;;;0.20;0.20;;;;;;;22.83;28.49;94404.53;4983700;28;20073;-67
2021/04/16 09:36:26;;;;;;;0.20;0.20;;;;;;;22.90;28.36;94411.38;4957091;28;20034;-66
2021/04/16 09:38:52;;;;;;;0.30;0.20;;;;;;;22.84;28.73;94407.97;4979003;28;20035;-66
2021/04/16 09:41:25;;;;;;;0.20;0.20;;;;;;;22.88;28.63;94408.22;4980717;28;20037;-67
2021/04/16 09:43:55;;;;;;;0.25;0.20;;;;;;;22.87;28.37;94396.81;4982579;28;20191;-67
2021/04/16 09:46:25;;;;;;;0.30;0.30;;;;;;;22.89;28.38;94407.94;4973176;28;20045;-67
2021/04/16 09:48:54;;;;;;;0.20;0.20;;;;;;;22.87;28.58;94404.78;4970692;28;20046;-67
2021/04/16 09:51:38;;;;;;;0.50;0.30;;;;;;;22.89;28.71;94397.34;4964176;28;20034;-66
2021/04/16 09:54:24;;;;;;;0.68;0.20;;;;;;;22.90;28.41;94406.88;4974599;28;20030;-67
2021/04/16 09:57:02;;;;;;;1.30;0.40;;;;;;;22.91;28.59;94402.38;4984742;28;20050;-66
2021/04/16 09:59:31;;;;;;;0.20;0.20;;;;;;;22.89;28.66;94404.50;4984806;28;20042;-67
2021/04/16 10:02:12;;;;;;;0.20;0.20;;;;;;;22.89;28.43;94400.00;4970306;28;20042;-67
2021/04/16 10:05:15;;;;;;;0.30;0.30;;;;;;;22.89;28.46;94400.00;5033905;28;20044;-67
2021/04/16 10:07:59;;;;;;;0.30;0.30;;;;;;;22.88;28.59;94406.34;5031452;28;20033;-66
2021/04/16 10:10:45;;;;;;;0.20;0.20;;;;;;;22.87;28.55;94402.13;5009719;28;20032;-67
2021/04/16 10:13:19;;;;;;;0.35;0.20;;;;;;;22.88;28.67;94385.13;5051868;28;20052;-66
2021/04/16 10:15:47;;;;;;;0.20;0.20;;;;;;;22.84;28.43;94392.84;5039947;28;20025;-67
2021/04/16 10:18:32;;;;;;;0.30;0.30;;;;;;;22.88;28.59;94387.78;5015101;28;20025;-66
2021/04/16 10:21:10;;;;;;;0.20;0.20;;;;;;;22.88;28.44;94401.03;5044141;28;20048;-66
2021/04/16 10:23:38;;;;;;;0.22;0.22;;;;;;;22.84;28.45;94395.50;5052393;28;20036;-66
2021/04/16 12:39:06;;;;;;;0.20;0.20;;;;;;;22.79;28.67;94328.47;5025267;28;20079;-66
2021/04/16 12:41:39;;;;;;;0.20;0.20;;;;;;;22.84;28.46;94329.22;5008269;28;20048;-67
2021/04/16 12:44:05;;;;;;;0.20;0.20;;;;;;;22.81;28.49;94335.09;5019502;28;20021;-67
2021/04/16 12:46:36;;;;;;;0.20;0.20;;;;;;;22.84;28.69;94328.44;5001124;28;20032;-67
2021/04/16 12:49:05;;;;;;;0.20;0.20;;;;;;;22.81;28.63;94329.78;4996791;28;20032;-67
2021/04/16 12:51:30;;;;;;;0.20;0.20;;;;;;;22.82;28.81;94319.97;5009169;28;20035;-66
2021/04/16 12:53:56;;;;;;;0.20;0.20;;;;;;;22.82;28.53;94331.34;5008984;28;20017;-66
2021/04/16 12:56:26;;;;;;;0.20;0.20;;;;;;;22.88;28.54;94328.66;5026894;28;20020;-66
2021/04/16 12:58:52;;;;;;;0.63;0.40;;;;;;;22.84;28.60;94323.13;5030845;28;20033;-66
2021/04/16 13:01:27;;;;;;;0.20;0.20;;;;;;;22.88;28.49;94323.38;4999529;28;20051;-67
2021/04/16 13:03:52;;;;;;;0.40;0.20;;;;;;;22.84;28.48;94309.88;5031561;28;20029;-67
2021/04/16 13:06:23;;;;;;;0.20;0.20;;;;;;;22.89;28.70;94320.44;4995660;28;20031;-66
2021/04/16 13:08:52;;;;;;;0.20;0.20;;;;;;;22.89;29.11;94325.75;5030157;28;20021;-66
2021/04/16 13:11:21;;;;;;;0.30;0.22;;;;;;;22.88;28.45;94318.84;5036822;28;20040;-66
2021/04/16 13:13:47;;;;;;;0.20;0.20;;;;;;;22.88;28.53;94318.06;5015801;28;20079;-66
2021/04/16 13:16:13;;;;;;;0.38;0.22;;;;;;;22.87;28.88;94316.50;5031474;28;20041;-66
2021/04/16 13:18:43;;;;;;;0.20;0.20;;;;;;;22.88;28.58;94315.41;5009073;28;20044;-66
2021/04/16 13:21:14;;;;;;;0.20;0.20;;;;;;;22.90;28.58;94316.72;5012631;28;20051;-66
2021/04/16 13:23:40;;;;;;;0.20;0.20;;;;;;;22.86;28.69;94304.28;4994176;28;20021;-66
2021/04/16 13:26:06;;;;;;;0.15;0.15;;;;;;;22.88;28.49;94304.81;4998671;28;20144;-66
2021/04/16 13:28:32;;;;;;;0.25;0.25;;;;;;;22.86;28.58;94307.72;5032930;28;20024;-66
2021/04/16 13:30:58;;;;;;;0.20;0.20;;;;;;;22.87;28.50;94298.72;5010201;28;20123;-66
2021/04/16 13:33:23;;;;;;;0.30;0.30;;;;;;;22.87;28.38;94297.94;5020742;28;20021;-66
2021/04/16 13:35:54;;;;;;;0.20;0.20;;;;;;;22.88;28.42;94300.28;5009522;28;20046;-66
2021/04/16 13:38:22;;;;;;;0.20;0.20;;;;;;;22.89;28.67;94301.09;5010888;28;20029;-66
2021/04/16 13:40:51;;;;;;;0.20;0.20;;;;;;;22.87;28.64;94296.06;5023603;28;20040;-66
2021/04/16 13:43:17;;;;;;;0.20;0.20;;;;;;;22.87;28.62;94288.13;4996282;28;20078;-66
2021/04/16 13:45:43;;;;;;;0.20;0.20;;;;;;;22.88;28.43;94289.69;5027429;28;20051;-66
2021/04/16 13:48:09;;;;;;;0.20;0.20;;;;;;;22.88;28.83;94292.34;4996047;28;20025;-66
2021/04/16 13:50:35;;;;;;;0.20;0.20;;;;;;;22.88;28.51;94279.06;4999386;28;20068;-66
2021/04/16 13:53:00;;;;;;;0.20;0.20;;;;;;;22.89;28.76;94285.97;5031108;28;20086;-66
2021/04/16 13:55:26;;;;;;;0.20;0.20;;;;;;;22.89;28.71;94272.72;5040424;28;20104;-66
2021/04/16 13:57:52;;;;;;;0.20;0.20;;;;;;;22.89;28.54;94275.38;5026184;28;20032;-66
2021/04/16 14:00:20;;;;;;;0.40;0.20;;;;;;;22.91;28.40;94273.22;5015831;28;20029;-66